createdAt,value
2023-03-22T00:00:39.624Z,82.07
2023-03-22T00:03:07.560Z,83.73
2023-03-22T00:05:35.969Z,83.06
2023-03-22T00:08:07.170Z,81.83
2023-03-22T00:10:38.473Z,80.50
2023-03-22T00:13:07.832Z,80.15
2023-03-22T00:15:36.512Z,79.95
2023-03-22T00:18:06.082Z,80.93
2023-03-22T00:20:38.685Z,83.43
2023-03-22T00:23:09.324Z,82.98
2023-03-22T00:25:37.755Z,82.47
2023-03-22T00:28:06.240Z,82.71
2023-03-22T00:30:34.670Z,82.72
2023-03-22T00:33:03.033Z,83.93
2023-03-22T00:35:31.017Z,85.69
2023-03-22T00:38:06.407Z,86.92
2023-03-22T00:40:35.213Z,87.08
2023-03-22T00:43:03.590Z,86.95
2023-03-22T00:45:32.026Z,86.97
2023-03-22T00:48:00.101Z,86.85
2023-03-22T00:50:28.746Z,86.47
2023-03-22T00:52:57.033Z,86.29
2023-03-22T00:55:25.565Z,85.40
2023-03-22T00:57:54.259Z,85.92
2023-03-22T01:00:23.428Z,87.08
2023-03-22T01:02:53.542Z,86.67
2023-03-22T01:05:22.502Z,87.02
2023-03-22T01:07:55.185Z,88.71
2023-03-22T01:10:24.091Z,89.67
2023-03-22T01:12:52.568Z,90.68
2023-03-22T01:15:20.967Z,90.75
2023-03-22T01:17:49.456Z,91.83
2023-03-22T01:20:17.757Z,92.03
2023-03-22T01:22:45.866Z,92.04
2023-03-22T01:25:14.700Z,92.28
2023-03-22T01:27:43.469Z,93.07
2023-03-22T01:30:12.413Z,92.36
2023-03-22T01:32:40.364Z,92.59
2023-03-22T01:35:09.306Z,92.18
2023-03-22T01:37:39.009Z,91.51
2023-03-22T01:40:08.129Z,90.42
2023-03-22T01:42:37.198Z,91.43
2023-03-22T01:45:14.636Z,91.24
2023-03-22T01:48:01.792Z,90.69
2023-03-22T01:50:33.058Z,90.47
2023-03-22T01:53:05.127Z,89.20
2023-03-22T01:55:36.122Z,88.70
2023-03-22T01:58:11.869Z,87.47
2023-03-22T02:00:51.650Z,87.26
2023-03-22T02:03:51.679Z,87.87
2023-03-22T02:06:21.580Z,88.31
2023-03-22T02:08:58.076Z,89.07
2023-03-22T02:12:14.131Z,88.33
2023-03-22T02:15:05.501Z,87.95
2023-03-22T02:18:33.858Z,87.50
2023-03-22T02:21:32.845Z,88.32
2023-03-22T02:24:33.014Z,89.21
2023-03-22T02:27:36.481Z,88.71
2023-03-22T02:30:22.614Z,89.90
2023-03-22T02:33:10.242Z,89.71
2023-03-22T02:35:53.944Z,90.89
2023-03-22T02:38:36.984Z,91.02
2023-03-22T02:41:22.580Z,90.66
2023-03-22T02:44:02.366Z,90.13
2023-03-22T02:47:00.515Z,90.11
2023-03-22T02:49:39.886Z,91.03
2023-03-22T02:52:21.661Z,91.13
2023-03-22T02:54:58.745Z,91.94
2023-03-22T02:57:56.434Z,91.75
2023-03-22T03:00:26.738Z,90.92
2023-03-22T03:03:02.256Z,91.79
2023-03-22T03:05:33.961Z,93.25
2023-03-22T03:08:02.832Z,93.45
2023-03-22T03:10:33.511Z,92.55
2023-03-22T03:13:01.754Z,93.00
2023-03-22T03:15:29.593Z,93.47
2023-03-22T03:18:22.704Z,95.26
2023-03-22T03:21:05.956Z,96.29
2023-03-22T03:23:54.439Z,96.24
2023-03-22T03:26:33.850Z,96.31
2023-03-22T03:29:19.734Z,95.40
2023-03-22T03:32:28.668Z,96.95
2023-03-22T03:35:01.962Z,96.30
2023-03-22T03:37:47.277Z,96.03
2023-03-22T03:40:21.404Z,95.52
2023-03-22T03:42:53.011Z,96.29
2023-03-22T03:45:22.252Z,96.19
2023-03-22T03:47:57.042Z,95.90
2023-03-22T03:50:26.905Z,96.35
2023-03-22T03:52:56.843Z,96.37
2023-03-22T03:55:26.997Z,96.44
2023-03-22T03:57:54.614Z,96.08
2023-03-22T04:00:22.872Z,96.19
2023-03-22T04:03:13.129Z,97.20
2023-03-22T04:06:06.562Z,97.57
2023-03-22T04:08:38.024Z,96.82
2023-03-22T04:11:07.273Z,96.53
2023-03-22T04:13:36.299Z,97.01
2023-03-22T04:16:09.782Z,97.65
2023-03-22T04:18:38.845Z,97.50
2023-03-22T04:21:09.249Z,98.19
2023-03-22T04:23:47.478Z,98.03
2023-03-22T04:26:16.682Z,98.14
2023-03-22T04:28:56.044Z,99.09
2023-03-22T04:31:24.597Z,99.79
2023-03-22T04:34:05.899Z,99.26
2023-03-22T04:36:56.802Z,99.15
2023-03-22T04:39:29.820Z,99.16
2023-03-22T04:42:09.616Z,100.00
2023-03-22T04:44:37.736Z,100.00
2023-03-22T04:47:06.228Z,100.00
2023-03-22T04:49:35.693Z,100.00
2023-03-22T04:52:04.449Z,100.00
2023-03-22T04:54:37.033Z,100.00
2023-03-22T04:57:05.983Z,100.00
2023-03-22T04:59:39.944Z,100.00
2023-03-22T05:02:07.699Z,100.00
2023-03-22T05:04:42.010Z,100.00
2023-03-22T05:07:19.806Z,100.00
2023-03-22T05:09:53.043Z,100.00
2023-03-22T05:12:21.627Z,100.00
2023-03-22T05:15:16.677Z,100.00
2023-03-22T05:17:44.735Z,100.00
2023-03-22T05:20:13.650Z,100.00
2023-03-22T05:22:45.985Z,100.00
2023-03-22T05:25:15.235Z,100.00
2023-03-22T05:27:45.261Z,100.00
2023-03-22T05:30:39.379Z,100.00
2023-03-22T05:33:22.021Z,100.00
2023-03-22T05:35:54.232Z,100.00
2023-03-22T05:38:25.502Z,100.00
2023-03-22T05:40:56.744Z,100.00
2023-03-22T05:43:24.966Z,100.00
2023-03-22T05:45:53.632Z,100.00
2023-03-22T05:48:36.515Z,99.18
2023-03-22T05:51:10.161Z,98.84
2023-03-22T05:53:38.828Z,98.27
2023-03-22T05:56:24.340Z,98.10
2023-03-22T05:58:58.235Z,97.06
2023-03-22T06:01:26.403Z,97.33
2023-03-22T06:04:30.485Z,98.85
2023-03-22T06:07:02.848Z,98.21
2023-03-22T06:09:54.801Z,98.28
2023-03-22T06:12:27.213Z,97.23
2023-03-22T06:15:17.552Z,96.70
2023-03-22T06:18:02.127Z,96.10
2023-03-22T06:20:33.820Z,95.97
2023-03-22T06:23:07.689Z,93.95
2023-03-22T06:25:36.568Z,93.94
2023-03-22T06:28:08.531Z,94.35
2023-03-22T06:30:38.415Z,94.52
2023-03-22T06:33:24.333Z,93.14
2023-03-22T06:35:59.054Z,91.62
2023-03-22T06:38:37.955Z,88.67
2023-03-22T06:41:06.540Z,88.11
2023-03-22T06:43:34.750Z,85.39
2023-03-22T06:46:14.473Z,84.46
2023-03-22T06:48:48.862Z,83.04
2023-03-22T06:51:17.899Z,81.00
2023-03-22T06:53:47.297Z,79.02
2023-03-22T06:56:14.976Z,77.59
2023-03-22T06:58:49.337Z,75.99
2023-03-22T07:01:17.262Z,75.29
2023-03-22T07:03:45.627Z,74.40
2023-03-22T07:06:17.163Z,74.83
2023-03-22T07:08:50.811Z,74.62
2023-03-22T07:11:25.945Z,74.80
2023-03-22T07:13:59.764Z,74.10
2023-03-22T07:16:35.033Z,72.78
2023-03-22T07:19:05.441Z,73.44
2023-03-22T07:21:33.886Z,72.96
2023-03-22T07:24:09.080Z,72.08
2023-03-22T07:26:40.978Z,71.29
2023-03-22T07:29:10.889Z,69.33
2023-03-22T07:31:40.138Z,68.03
2023-03-22T07:34:12.237Z,66.51
2023-03-22T07:36:57.126Z,64.71
2023-03-22T07:39:25.204Z,62.40
2023-03-22T07:41:53.371Z,60.38
2023-03-22T07:44:21.780Z,60.34
2023-03-22T07:47:27.186Z,60.08
2023-03-22T07:50:24.986Z,59.45
2023-03-22T07:52:56.877Z,57.82
2023-03-22T07:55:25.432Z,55.95
2023-03-22T07:57:53.794Z,55.37
2023-03-22T08:00:21.851Z,54.19
2023-03-22T08:03:01.168Z,54.85
2023-03-22T08:05:51.781Z,54.70
2023-03-22T08:08:20.923Z,52.95
2023-03-22T08:10:50.808Z,52.69
2023-03-22T08:13:18.899Z,54.53
2023-03-22T08:15:46.840Z,52.47
2023-03-22T08:18:15.666Z,52.94
2023-03-22T08:20:45.676Z,50.94
2023-03-22T08:23:22.620Z,50.81
2023-03-22T08:26:12.846Z,51.59
2023-03-22T08:28:41.679Z,51.56
2023-03-22T08:31:17.266Z,52.69
2023-03-22T08:33:47.698Z,51.82
2023-03-22T08:36:18.462Z,52.00
2023-03-22T08:38:53.271Z,50.43
2023-03-22T08:41:28.137Z,50.39
2023-03-22T08:43:56.250Z,50.09
2023-03-22T08:46:24.632Z,49.98
2023-03-22T08:48:53.880Z,50.71
2023-03-22T08:51:30.889Z,49.80
2023-03-22T08:54:16.643Z,53.81
2023-03-22T08:56:54.342Z,52.60
2023-03-22T08:59:46.979Z,53.15
2023-03-22T09:02:44.378Z,53.21
2023-03-22T09:05:13.972Z,51.43
2023-03-22T09:07:43.058Z,48.74
2023-03-22T09:10:19.236Z,49.78
2023-03-22T09:12:49.831Z,48.15
2023-03-22T09:15:18.281Z,46.83
2023-03-22T09:17:53.474Z,45.44
2023-03-22T09:20:25.457Z,46.21
2023-03-22T09:22:53.321Z,43.34
2023-03-22T09:25:21.823Z,44.93
2023-03-22T09:27:50.665Z,43.93
2023-03-22T09:30:18.611Z,41.46
2023-03-22T09:32:46.713Z,39.65
2023-03-22T09:35:16.677Z,39.87
2023-03-22T09:37:59.943Z,40.92
2023-03-22T09:40:32.182Z,40.64
2023-03-22T09:43:04.809Z,40.76
2023-03-22T09:45:41.282Z,39.81
2023-03-22T09:48:18.713Z,39.23
2023-03-22T09:50:53.845Z,39.28
2023-03-22T09:53:23.781Z,39.80
2023-03-22T09:56:17.996Z,38.64
2023-03-22T09:58:53.433Z,37.67
2023-03-22T10:01:46.403Z,37.54
2023-03-22T10:04:52.518Z,37.04
2023-03-22T10:07:31.351Z,39.04
2023-03-22T10:10:18.084Z,36.37
2023-03-22T10:13:06.493Z,34.50
2023-03-22T10:15:52.311Z,33.64
2023-03-22T10:18:24.933Z,34.80
2023-03-22T10:21:02.049Z,34.94
2023-03-22T10:23:54.503Z,32.87
2023-03-22T10:26:46.301Z,30.88
2023-03-22T10:29:22.255Z,31.49
2023-03-22T10:31:50.632Z,32.64
2023-03-22T10:34:29.337Z,32.69
2023-03-22T10:37:01.894Z,33.82
2023-03-22T10:39:39.808Z,32.38
2023-03-22T10:42:13.140Z,31.86
2023-03-22T10:45:01.421Z,34.04
2023-03-22T10:47:47.347Z,34.10
2023-03-22T10:50:26.641Z,33.14
2023-03-22T10:53:06.571Z,30.32
2023-03-22T10:55:41.822Z,30.86
2023-03-22T10:58:21.372Z,31.70
2023-03-22T11:00:53.734Z,31.03
2023-03-22T11:03:37.308Z,30.99
2023-03-22T11:06:13.375Z,28.85
2023-03-22T11:08:45.754Z,29.26
2023-03-22T11:11:29.991Z,29.06
2023-03-22T11:14:26.780Z,27.26
2023-03-22T11:17:08.032Z,29.31
2023-03-22T11:19:38.699Z,30.41
2023-03-22T11:22:26.932Z,31.27
2023-03-22T11:24:57.015Z,31.47
2023-03-22T11:27:31.300Z,31.59
2023-03-22T11:30:29.194Z,32.45
2023-03-22T11:33:17.954Z,27.86
2023-03-22T11:35:48.734Z,27.46
2023-03-22T11:38:31.082Z,27.72
2023-03-22T11:41:07.421Z,27.83
2023-03-22T11:43:39.486Z,27.62
2023-03-22T11:46:09.023Z,26.55
2023-03-22T11:48:38.201Z,26.40
2023-03-22T11:51:28.371Z,27.16
2023-03-22T11:54:08.069Z,27.83
2023-03-22T11:56:41.685Z,27.71
2023-03-22T11:59:28.750Z,27.41
2023-03-22T12:02:32.555Z,29.30
2023-03-22T12:05:12.347Z,29.40
2023-03-22T12:07:41.738Z,27.92
2023-03-22T12:10:26.574Z,25.99
2023-03-22T12:12:59.487Z,27.89
2023-03-22T12:15:31.782Z,27.16
2023-03-22T12:18:07.973Z,27.11
2023-03-22T12:20:56.254Z,26.23
2023-03-22T12:23:29.880Z,26.47
2023-03-22T12:26:06.405Z,27.49
2023-03-22T12:28:42.137Z,26.36
2023-03-22T12:31:16.622Z,26.87
2023-03-22T12:33:48.235Z,26.14
2023-03-22T12:36:19.851Z,27.06
2023-03-22T12:39:09.569Z,27.83
2023-03-22T12:41:41.073Z,27.04
2023-03-22T12:44:21.572Z,26.65
2023-03-22T12:46:55.010Z,25.35
2023-03-22T12:49:40.760Z,25.18
2023-03-22T12:52:29.721Z,27.88
2023-03-22T12:55:02.265Z,26.97
2023-03-22T12:57:30.414Z,26.69
2023-03-22T13:00:01.821Z,26.46
2023-03-22T13:02:33.230Z,25.53
2023-03-22T13:05:06.929Z,26.52
2023-03-22T13:07:47.577Z,25.22
2023-03-22T13:10:34.244Z,25.25
2023-03-22T13:13:32.874Z,25.45
2023-03-22T13:16:11.046Z,24.72
2023-03-22T13:18:38.875Z,23.20
2023-03-22T13:21:21.384Z,22.97
2023-03-22T13:24:10.064Z,23.81
2023-03-22T13:26:46.216Z,24.36
2023-03-22T13:29:24.845Z,26.68
2023-03-22T13:32:01.645Z,22.86
2023-03-22T13:34:45.735Z,21.32
2023-03-22T13:37:38.635Z,20.43
2023-03-22T13:40:35.079Z,20.62
2023-03-22T13:43:25.302Z,19.84
2023-03-22T13:46:09.100Z,22.09
2023-03-22T13:48:44.848Z,20.14
2023-03-22T13:51:30.366Z,18.59
2023-03-22T13:54:07.157Z,17.03
2023-03-22T13:56:47.736Z,17.22
2023-03-22T13:59:29.913Z,18.26
2023-03-22T14:02:18.711Z,19.02
2023-03-22T14:04:56.146Z,18.62
2023-03-22T14:07:45.374Z,17.52
2023-03-22T14:10:23.992Z,18.08
2023-03-22T14:13:21.952Z,18.38
2023-03-22T14:15:59.946Z,18.54
2023-03-22T14:18:33.072Z,18.21
2023-03-22T14:21:05.359Z,17.84
